B18 weather

Alton Bay Seaplane Base
Alton Bay, New Hampshire, United States

Public forecast

Using degrees Fahrenheit for public forecast. Weather courtesy of forecast.io.

Closest aviation weather report (METAR) to Alton Bay Seaplane Base

Closest report is Laconia Municipal Airport, 9.8 nm (18.1 km) NW. Retrieved 2020/02/18 02:56 UTC (24 minutes ago):

KLCI 180256Z AUTO 00000KT 10SM CLR M08/M12 A3042 RMK AO2 SLP309 T10831122 53017 FZRANO

Closest aviation forecast (TAF) to Alton Bay Seaplane Base

Closest forecast is Concord Municipal Airport, 20.2 nm (37.3 km) SW. Retrieved 2020-02-18 00:33 UTC (3 hours ago):

TAF KCON 172330Z 1800/1824 VRB03KT P6SM SCT250 FM181400 11005KT 2SM -SN BR OVC008 FM181800 12005KT 1SM -SN BR OVC004